De Xin Hai — BQBP — position and weather

sailwx.info

Track history (hours):
 
Tides and Currents Weather Stations Pressure Air Temp Water Temp Dewpoint Dewpoint Depression Visibility Wind Speed Wind Dir Waves Ship Positions

De Xin Hai

Last reported at 2015-Jan-22 02:30 UTC. Time now 2015-Jan-25 18:23 UTC.
Position N 55°39' E 015°39'.

Length 225 m; draft 6.9 m.

Type: Cargo ship. MMSI: 367344200.

Date/timePositionNaut miles runAvg speedWind from/ knotsBaromVisibWave heightAir tempDewpointWater temp
2015-Jan-22 02:30N 55°39' E 015°39'1313.5
2015-Jan-22 01:33N 55°36' E 015°18'1313.5
2015-Jan-22 00:33N 55°29' E 014°57'1313.5
2015-Jan-21 23:34N 55°22' E 014°36'1013.3
2015-Jan-21 22:50N 55°15' E 014°26'113.0
2015-Jan-21 22:46N 55°14' E 014°25'313.2
2015-Jan-21 22:34N 55°12' E 014°22'1212.1
2015-Jan-21 21:33N 55°10' E 014°01'1413.5
2015-Jan-21 20:32N 55°11' E 013°37'1212.0
2015-Jan-21 19:33N 55°11' E 013°16'1211.9
2015-Jan-21 18:33N 55°14' E 012°56'1111.5
2015-Jan-21 17:33N 55°19' E 012°38'1212.2
2015-Jan-21 16:33N 55°31' E 012°42'8 8.1
2015-Jan-21 15:33N 55°39' E 012°41'1212.2
2015-Jan-21 14:33N 55°52' E 012°40'1211.9
2015-Jan-21 13:33N 56°04' E 012°38'9 8.8
2015-Jan-21 12:33N 56°09' E 012°26'1110.7
2015-Jan-21 11:33N 56°15' E 012°10'1212.0
2015-Jan-21 10:32N 56°26' E 011°60'1212.7
2015-Jan-21 09:33N 56°38' E 011°55'3812.5
2015-Jan-21 06:33N 57°14' E 011°33'1312.7
2015-Jan-21 05:33N 57°26' E 011°25'1212.2
2015-Jan-21 04:33N 57°35' E 011°10'1212.2
2015-Jan-21 03:33N 57°43' E 010°53'1111.2
2015-Jan-21 02:33N 57°48' E 010°34'15211.3
2015-Jan-20 13:08N 56°12' E 006°58'812.8
2015-Jan-20 12:32N 56°04' E 006°55'1312.8
2015-Jan-20 11:33N 55°52' E 006°50'1612.8
2015-Jan-20 10:18N 55°36' E 006°51'1013.0
2015-Jan-20 09:32N 55°26' E 006°51'1212.0
2015-Jan-20 08:33N 55°14' E 006°51'1212.4
2015-Jan-20 07:33N 55°02' E 006°51'1212.1
2015-Jan-20 06:33N 54°50' E 006°58'1212.4
2015-Jan-20 05:33N 54°39' E 007°07'1313.1
2015-Jan-20 04:33N 54°27' E 007°16'1313.1
2015-Jan-20 03:33N 54°15' E 007°26'1313.5
2015-Jan-20 02:33N 54°03' E 007°36'1312.5
2015-Jan-20 01:33N 53°53' E 007°49'1313.0
2015-Jan-20 00:33N 53°48' E 008°09'1413.6
2015-Jan-19 23:33N 53°38' E 008°26'8 8.5
2015-Jan-19 22:33N 53°31' E 008°33'8 8.3
2015-Jan-19 21:33N 53°23' E 008°30'3 3.3
2015-Jan-19 20:33N 53°20' E 008°29'0 0.0
2015-Jan-19 19:33N 53°20' E 008°29'0 0.0
2015-Jan-19 18:33N 53°20' E 008°29'0 0.0
2015-Jan-19 17:33N 53°20' E 008°29'0 0.0
2015-Jan-19 16:33N 53°20' E 008°29'0 0.0
2015-Jan-19 15:30N 53°20' E 008°29'0 0.0
2015-Jan-19 14:30N 53°20' E 008°29'0 0.0
2015-Jan-19 13:33N 53°20' E 008°29'0 0.0
2015-Jan-19 12:33N 53°20' E 008°29'0 0.0
2015-Jan-19 11:33N 53°20' E 008°29'0 0.0
2015-Jan-19 10:33N 53°20' E 008°29'0 0.0
2015-Jan-19 09:33N 53°20' E 008°29'0 0.0
2015-Jan-19 08:33N 53°20' E 008°29'0 0.0
2015-Jan-19 07:33N 53°20' E 008°29'0 0.0
2015-Jan-19 06:33N 53°20' E 008°29'0 0.0
2015-Jan-19 05:33N 53°20' E 008°29'0 0.0
2015-Jan-19 04:33N 53°20' E 008°29'0 0.0
2015-Jan-19 03:33N 53°20' E 008°29'0 0.0
2015-Jan-19 02:33N 53°20' E 008°29'0 0.0
2015-Jan-19 01:33N 53°20' E 008°29'0 0.0
2015-Jan-19 00:33N 53°20' E 008°29'0 0.0
2015-Jan-18 23:30N 53°20' E 008°29'0 0.0
2015-Jan-18 22:33N 53°20' E 008°29'0 0.0
2015-Jan-18 21:33N 53°20' E 008°29'0 0.0
2015-Jan-18 20:33N 53°20' E 008°29'0 0.0
2015-Jan-18 19:21N 53°20' E 008°29'0 0.0
2015-Jan-18 18:27N 53°20' E 008°29'0 0.0
2015-Jan-18 17:33N 53°20' E 008°29'0 0.0
2015-Jan-18 16:33N 53°20' E 008°29'0 0.0
2015-Jan-18 15:33N 53°20' E 008°29'0 0.0
2015-Jan-18 14:33N 53°20' E 008°29'0 0.0
2015-Jan-18 13:30N 53°20' E 008°29'0 0.0
2015-Jan-18 11:21N 53°20' E 008°29'0 0.0
2015-Jan-18 10:30N 53°20' E 008°29'0 0.0
2015-Jan-18 09:12N 53°20' E 008°29'0 0.0
2015-Jan-18 08:30N 53°20' E 008°29'0 0.0
2015-Jan-18 06:12N 53°20' E 008°29'0 0.0
2015-Jan-18 04:27N 53°20' E 008°29'0 0.0
2015-Jan-18 03:33N 53°20' E 008°29'0 0.0
2015-Jan-18 02:27N 53°20' E 008°29'0 0.0
2015-Jan-18 01:33N 53°20' E 008°29'0 0.0
2015-Jan-18 00:30N 53°20' E 008°29'0 0.0
2015-Jan-17 23:24N 53°20' E 008°29'0 0.0
2015-Jan-17 22:27N 53°20' E 008°29'0 0.0
2015-Jan-17 21:33N 53°20' E 008°29'0 0.0
2015-Jan-17 20:33N 53°20' E 008°29'0 0.0
2015-Jan-17 19:32N 53°20' E 008°29'0 0.0
2015-Jan-17 18:23N 53°20' E 008°29'0 0.0
2015-Jan-17 17:29N 53°20' E 008°29'0 0.0
2015-Jan-17 16:26N 53°20' E 008°29'0 0.0
2015-Jan-17 15:29N 53°20' E 008°29'0 0.0
2015-Jan-17 14:26N 53°20' E 008°29'0 0.0
2015-Jan-17 12:11N 53°20' E 008°29'0 0.0
2015-Jan-17 11:23N 53°20' E 008°29'0 0.0
2015-Jan-17 10:32N 53°20' E 008°29'0 0.0
2015-Jan-17 09:29N 53°20' E 008°29'0 0.0
2015-Jan-17 08:29N 53°20' E 008°29'0 0.0
2015-Jan-17 07:17N 53°20' E 008°29'0 0.0
2015-Jan-17 06:26N 53°20' E 008°29'0 0.0
2015-Jan-17 05:32N 53°20' E 008°29'0 0.0
2015-Jan-17 04:32N 53°20' E 008°29'0 0.0
2015-Jan-17 03:29N 53°20' E 008°29'0 0.0
2015-Jan-17 02:32N 53°20' E 008°29'0 0.0
2015-Jan-17 01:32N 53°20' E 008°29'0 0.0
2015-Jan-17 00:32N 53°20' E 008°29'0 0.0
2015-Jan-16 23:32N 53°20' E 008°29'0 0.0
2015-Jan-16 22:32N 53°20' E 008°29'0 0.0
2015-Jan-16 21:29N 53°20' E 008°29'0 0.0
2015-Jan-16 20:32N 53°20' E 008°29'0 0.0
2015-Jan-16 19:29N 53°20' E 008°29'0 0.0
2015-Jan-16 18:32N 53°20' E 008°29'0 0.0
2015-Jan-16 17:32N 53°20' E 008°29'0 0.0
2015-Jan-16 16:23N 53°20' E 008°29'0 0.0
2015-Jan-16 15:32N 53°20' E 008°29'0 0.0
2015-Jan-16 14:32N 53°20' E 008°29'0 0.0
2015-Jan-16 13:29N 53°20' E 008°29'0 0.0
2015-Jan-16 09:32N 53°20' E 008°29'0 0.0
2015-Jan-16 08:32N 53°20' E 008°29'0 0.0
2015-Jan-16 07:29N 53°20' E 008°29'0 0.0
2015-Jan-16 06:29N 53°20' E 008°29'0 0.0
2015-Jan-16 05:32N 53°20' E 008°29'0 0.0
2015-Jan-16 04:32N 53°20' E 008°29'0 0.0
2015-Jan-16 03:20N 53°20' E 008°29'0 0.0
2015-Jan-16 01:32N 53°20' E 008°29'0 0.0
2015-Jan-16 00:10N 53°20' E 008°29'0 0.0
2015-Jan-15 23:10N 53°20' E 008°29'0 0.0
2015-Jan-15 21:32N 53°20' E 008°29'0 0.0
2015-Jan-15 20:32N 53°20' E 008°29'0 0.0
2015-Jan-15 19:26N 53°20' E 008°29'0 0.0
2015-Jan-15 18:29N 53°20' E 008°29'0 0.0
2015-Jan-15 17:32N 53°20' E 008°29'0 0.0
2015-Jan-15 16:26N 53°20' E 008°29'0 0.0
2015-Jan-15 15:32N 53°20' E 008°29'0 0.0
2015-Jan-15 14:32N 53°20' E 008°29'0 0.0
2015-Jan-15 13:32N 53°20' E 008°29'0 0.0
2015-Jan-15 12:29N 53°20' E 008°29'0 0.0
2015-Jan-15 11:29N 53°20' E 008°29'0 0.0
2015-Jan-15 10:23N 53°20' E 008°29'0 0.0
2015-Jan-15 09:23N 53°20' E 008°29'0 0.0
2015-Jan-15 08:32N 53°20' E 008°29'0 0.0
2015-Jan-15 07:29N 53°20' E 008°29'0 0.0
2015-Jan-15 06:29N 53°20' E 008°29'0 0.5
2015-Jan-15 05:34N 53°20' E 008°30'4 4.1
2015-Jan-15 04:34N 53°24' E 008°30'9 8.9
2015-Jan-15 03:33N 53°33' E 008°33'1111.5
2015-Jan-15 02:34N 53°42' E 008°21'1313.1
2015-Jan-15 01:34N 53°50' E 008°04'1211.9
2015-Jan-15 00:33N 53°53' E 007°44'2 2.3
2015-Jan-14 23:34N 53°55' E 007°47'0 0.0
2015-Jan-14 20:16N 53°55' E 007°47'0 0.2
2015-Jan-14 19:28N 53°55' E 007°47'4 4.1
2015-Jan-14 18:33N 53°56' E 007°41'2511.0
2015-Jan-14 16:17N 53°50' E 006°60'1013.3
2015-Jan-14 15:32N 53°48' E 006°43'1313.4
2015-Jan-14 14:32N 53°45' E 006°21'1313.5
2015-Jan-14 13:34N 53°41' E 006°00'1413.7
2015-Jan-14 12:33N 53°36' E 005°39'1413.6
2015-Jan-14 11:34N 53°31' E 005°17'1514.9
2015-Jan-14 10:33N 53°27' E 004°53'1513.5
2015-Jan-14 09:26N 53°15' E 004°36'1314.2
2015-Jan-14 08:33N 53°04' E 004°26'1514.0
2015-Jan-14 07:27N 52°51' E 004°14'1213.6
2015-Jan-14 06:33N 52°40' E 004°04'1313.1
2015-Jan-14 05:33N 52°29' E 003°54'1312.4
2015-Jan-14 04:32N 52°16' E 003°52'1111.7
2015-Jan-14 03:34N 52°05' E 003°54'9 8.5
2015-Jan-14 02:33N 51°59' E 004°05'1010.4
2015-Jan-14 01:33N 51°54' E 004°19'5 4.6
2015-Jan-14 00:34N 51°53' E 004°27'0 0.1
2015-Jan-13 23:31N 51°53' E 004°27'0 0.0
2015-Jan-13 22:31N 51°53' E 004°27'0 0.0
2015-Jan-13 21:34N 51°53' E 004°27'0 0.0
2015-Jan-13 20:31N 51°53' E 004°27'0 0.0
2015-Jan-13 19:31N 51°53' E 004°27'0 0.0
2015-Jan-13 18:34N 51°53' E 004°27'0 0.0
2015-Jan-13 17:34N 51°53' E 004°27'0 0.0
2015-Jan-13 16:34N 51°53' E 004°27'0 0.0
2015-Jan-13 15:34N 51°53' E 004°27'0 0.0
2015-Jan-13 14:34N 51°53' E 004°27'0 0.0
2015-Jan-13 13:34N 51°53' E 004°27'0 0.0
2015-Jan-13 12:34N 51°53' E 004°27'0 0.0
2015-Jan-13 11:31N 51°53' E 004°27'0 0.0
2015-Jan-13 10:34N 51°53' E 004°27'0 0.0
2015-Jan-13 09:34N 51°53' E 004°27'0 0.0
2015-Jan-13 08:34N 51°53' E 004°27'0 0.0
2015-Jan-13 07:34N 51°53' E 004°27'0 0.0
2015-Jan-13 06:34N 51°53' E 004°27'0 0.0
2015-Jan-13 05:34N 51°53' E 004°27'0 0.0
2015-Jan-13 04:31N 51°53' E 004°27'0 0.0
2015-Jan-13 03:34N 51°53' E 004°27'0 0.0
2015-Jan-13 02:34N 51°53' E 004°27'0 0.0
2015-Jan-13 01:34N 51°53' E 004°27'0 0.0
2015-Jan-13 00:34N 51°53' E 004°27'0 0.0
2015-Jan-12 23:34N 51°53' E 004°27'0 0.0
2015-Jan-12 22:34N 51°53' E 004°27'0 0.0
2015-Jan-12 21:34N 51°53' E 004°27'0 0.0
2015-Jan-12 20:33N 51°53' E 004°27'0 0.0
2015-Jan-12 19:34N 51°53' E 004°27'0 0.0
2015-Jan-12 18:33N 51°53' E 004°27'0 0.0
2015-Jan-12 17:33N 51°53' E 004°27'0 0.0
2015-Jan-12 16:34N 51°53' E 004°27'0 0.0
2015-Jan-12 15:34N 51°53' E 004°27'0 0.0
2015-Jan-12 14:30N 51°53' E 004°27'0 0.0
2015-Jan-12 13:33N 51°53' E 004°27'0 0.0
2015-Jan-12 12:33N 51°53' E 004°27'0 0.0
2015-Jan-12 11:33N 51°53' E 004°27'0 0.0
2015-Jan-12 10:33N 51°53' E 004°27'0 0.0
2015-Jan-12 09:32N 51°53' E 004°27'0 0.0
2015-Jan-12 08:32N 51°53' E 004°27'0 0.0
2015-Jan-12 07:31N 51°53' E 004°27'0 0.0
2015-Jan-12 06:31N 51°53' E 004°27'0 0.0
2015-Jan-12 05:31N 51°53' E 004°27'0 0.0
2015-Jan-12 04:28N 51°53' E 004°27'0 0.0
2015-Jan-12 03:31N 51°53' E 004°27'0 0.0
2015-Jan-12 02:31N 51°53' E 004°27'  
Track history (hours):
 
Tides and Currents Weather Stations Pressure Air Temp Water Temp Dewpoint Dewpoint Depression Visibility Wind Speed Wind Dir Waves Ship Positions

De Xin Hai

Last reported at 2015-Jan-22 02:30 UTC. Time now 2015-Jan-25 18:23 UTC.
Position N 55°39' E 015°39'.

Length 225 m; draft 6.9 m.

Type: Cargo ship. MMSI: 367344200.

Date/timePositionNaut miles runAvg speedWind from/ knotsBaromVisibWave heightAir tempDewpointWater temp
2015-Jan-22 02:30N 55°39' E 015°39'1313.5
2015-Jan-22 01:33N 55°36' E 015°18'1313.5
2015-Jan-22 00:33N 55°29' E 014°57'1313.5
2015-Jan-21 23:34N 55°22' E 014°36'1013.3
2015-Jan-21 22:50N 55°15' E 014°26'113.0
2015-Jan-21 22:46N 55°14' E 014°25'313.2
2015-Jan-21 22:34N 55°12' E 014°22'1212.1
2015-Jan-21 21:33N 55°10' E 014°01'1413.5
2015-Jan-21 20:32N 55°11' E 013°37'1212.0
2015-Jan-21 19:33N 55°11' E 013°16'1211.9
2015-Jan-21 18:33N 55°14' E 012°56'1111.5
2015-Jan-21 17:33N 55°19' E 012°38'1212.2
2015-Jan-21 16:33N 55°31' E 012°42'8 8.1
2015-Jan-21 15:33N 55°39' E 012°41'1212.2
2015-Jan-21 14:33N 55°52' E 012°40'1211.9
2015-Jan-21 13:33N 56°04' E 012°38'9 8.8
2015-Jan-21 12:33N 56°09' E 012°26'1110.7
2015-Jan-21 11:33N 56°15' E 012°10'1212.0
2015-Jan-21 10:32N 56°26' E 011°60'1212.7
2015-Jan-21 09:33N 56°38' E 011°55'3812.5
2015-Jan-21 06:33N 57°14' E 011°33'1312.7
2015-Jan-21 05:33N 57°26' E 011°25'1212.2
2015-Jan-21 04:33N 57°35' E 011°10'1212.2
2015-Jan-21 03:33N 57°43' E 010°53'1111.2
2015-Jan-21 02:33N 57°48' E 010°34'15211.3
2015-Jan-20 13:08N 56°12' E 006°58'812.8
2015-Jan-20 12:32N 56°04' E 006°55'1312.8
2015-Jan-20 11:33N 55°52' E 006°50'1612.8
2015-Jan-20 10:18N 55°36' E 006°51'1013.0
2015-Jan-20 09:32N 55°26' E 006°51'1212.0
2015-Jan-20 08:33N 55°14' E 006°51'1212.4
2015-Jan-20 07:33N 55°02' E 006°51'1212.1
2015-Jan-20 06:33N 54°50' E 006°58'1212.4
2015-Jan-20 05:33N 54°39' E 007°07'1313.1
2015-Jan-20 04:33N 54°27' E 007°16'1313.1
2015-Jan-20 03:33N 54°15' E 007°26'1313.5
2015-Jan-20 02:33N 54°03' E 007°36'1312.5
2015-Jan-20 01:33N 53°53' E 007°49'1313.0
2015-Jan-20 00:33N 53°48' E 008°09'1413.6
2015-Jan-19 23:33N 53°38' E 008°26'8 8.5
2015-Jan-19 22:33N 53°31' E 008°33'8 8.3
2015-Jan-19 21:33N 53°23' E 008°30'3 3.3
2015-Jan-19 20:33N 53°20' E 008°29'0 0.0
2015-Jan-19 19:33N 53°20' E 008°29'0 0.0
2015-Jan-19 18:33N 53°20' E 008°29'0 0.0
2015-Jan-19 17:33N 53°20' E 008°29'0 0.0
2015-Jan-19 16:33N 53°20' E 008°29'0 0.0
2015-Jan-19 15:30N 53°20' E 008°29'0 0.0
2015-Jan-19 14:30N 53°20' E 008°29'0 0.0
2015-Jan-19 13:33N 53°20' E 008°29'0 0.0
2015-Jan-19 12:33N 53°20' E 008°29'0 0.0
2015-Jan-19 11:33N 53°20' E 008°29'0 0.0
2015-Jan-19 10:33N 53°20' E 008°29'0 0.0
2015-Jan-19 09:33N 53°20' E 008°29'0 0.0
2015-Jan-19 08:33N 53°20' E 008°29'0 0.0
2015-Jan-19 07:33N 53°20' E 008°29'0 0.0
2015-Jan-19 06:33N 53°20' E 008°29'0 0.0
2015-Jan-19 05:33N 53°20' E 008°29'0 0.0
2015-Jan-19 04:33N 53°20' E 008°29'0 0.0
2015-Jan-19 03:33N 53°20' E 008°29'0 0.0
2015-Jan-19 02:33N 53°20' E 008°29'0 0.0
2015-Jan-19 01:33N 53°20' E 008°29'0 0.0
2015-Jan-19 00:33N 53°20' E 008°29'0 0.0
2015-Jan-18 23:30N 53°20' E 008°29'0 0.0
2015-Jan-18 22:33N 53°20' E 008°29'0 0.0
2015-Jan-18 21:33N 53°20' E 008°29'0 0.0
2015-Jan-18 20:33N 53°20' E 008°29'0 0.0
2015-Jan-18 19:21N 53°20' E 008°29'0 0.0
2015-Jan-18 18:27N 53°20' E 008°29'0 0.0
2015-Jan-18 17:33N 53°20' E 008°29'0 0.0
2015-Jan-18 16:33N 53°20' E 008°29'0 0.0
2015-Jan-18 15:33N 53°20' E 008°29'0 0.0
2015-Jan-18 14:33N 53°20' E 008°29'0 0.0
2015-Jan-18 13:30N 53°20' E 008°29'0 0.0
2015-Jan-18 11:21N 53°20' E 008°29'0 0.0
2015-Jan-18 10:30N 53°20' E 008°29'0 0.0
2015-Jan-18 09:12N 53°20' E 008°29'0 0.0
2015-Jan-18 08:30N 53°20' E 008°29'0 0.0
2015-Jan-18 06:12N 53°20' E 008°29'0 0.0
2015-Jan-18 04:27N 53°20' E 008°29'0 0.0
2015-Jan-18 03:33N 53°20' E 008°29'0 0.0
2015-Jan-18 02:27N 53°20' E 008°29'0 0.0
2015-Jan-18 01:33N 53°20' E 008°29'0 0.0
2015-Jan-18 00:30N 53°20' E 008°29'0 0.0
2015-Jan-17 23:24N 53°20' E 008°29'0 0.0
2015-Jan-17 22:27N 53°20' E 008°29'0 0.0
2015-Jan-17 21:33N 53°20' E 008°29'0 0.0
2015-Jan-17 20:33N 53°20' E 008°29'0 0.0
2015-Jan-17 19:32N 53°20' E 008°29'0 0.0
2015-Jan-17 18:23N 53°20' E 008°29'0 0.0
2015-Jan-17 17:29N 53°20' E 008°29'0 0.0
2015-Jan-17 16:26N 53°20' E 008°29'0 0.0
2015-Jan-17 15:29N 53°20' E 008°29'0 0.0
2015-Jan-17 14:26N 53°20' E 008°29'0 0.0
2015-Jan-17 12:11N 53°20' E 008°29'0 0.0
2015-Jan-17 11:23N 53°20' E 008°29'0 0.0
2015-Jan-17 10:32N 53°20' E 008°29'0 0.0
2015-Jan-17 09:29N 53°20' E 008°29'0 0.0
2015-Jan-17 08:29N 53°20' E 008°29'0 0.0
2015-Jan-17 07:17N 53°20' E 008°29'0 0.0
2015-Jan-17 06:26N 53°20' E 008°29'0 0.0
2015-Jan-17 05:32N 53°20' E 008°29'0 0.0
2015-Jan-17 04:32N 53°20' E 008°29'0 0.0
2015-Jan-17 03:29N 53°20' E 008°29'0 0.0
2015-Jan-17 02:32N 53°20' E 008°29'0 0.0
2015-Jan-17 01:32N 53°20' E 008°29'0 0.0
2015-Jan-17 00:32N 53°20' E 008°29'0 0.0
2015-Jan-16 23:32N 53°20' E 008°29'0 0.0
2015-Jan-16 22:32N 53°20' E 008°29'0 0.0
2015-Jan-16 21:29N 53°20' E 008°29'0 0.0
2015-Jan-16 20:32N 53°20' E 008°29'0 0.0
2015-Jan-16 19:29N 53°20' E 008°29'0 0.0
2015-Jan-16 18:32N 53°20' E 008°29'0 0.0
2015-Jan-16 17:32N 53°20' E 008°29'0 0.0
2015-Jan-16 16:23N 53°20' E 008°29'0 0.0
2015-Jan-16 15:32N 53°20' E 008°29'0 0.0
2015-Jan-16 14:32N 53°20' E 008°29'0 0.0
2015-Jan-16 13:29N 53°20' E 008°29'0 0.0
2015-Jan-16 09:32N 53°20' E 008°29'0 0.0
2015-Jan-16 08:32N 53°20' E 008°29'0 0.0
2015-Jan-16 07:29N 53°20' E 008°29'0 0.0
2015-Jan-16 06:29N 53°20' E 008°29'0 0.0
2015-Jan-16 05:32N 53°20' E 008°29'0 0.0
2015-Jan-16 04:32N 53°20' E 008°29'0 0.0
2015-Jan-16 03:20N 53°20' E 008°29'0 0.0
2015-Jan-16 01:32N 53°20' E 008°29'0 0.0
2015-Jan-16 00:10N 53°20' E 008°29'0 0.0
2015-Jan-15 23:10N 53°20' E 008°29'0 0.0
2015-Jan-15 21:32N 53°20' E 008°29'0 0.0
2015-Jan-15 20:32N 53°20' E 008°29'0 0.0
2015-Jan-15 19:26N 53°20' E 008°29'0 0.0
2015-Jan-15 18:29N 53°20' E 008°29'0 0.0
2015-Jan-15 17:32N 53°20' E 008°29'0 0.0
2015-Jan-15 16:26N 53°20' E 008°29'0 0.0
2015-Jan-15 15:32N 53°20' E 008°29'0 0.0
2015-Jan-15 14:32N 53°20' E 008°29'0 0.0
2015-Jan-15 13:32N 53°20' E 008°29'0 0.0
2015-Jan-15 12:29N 53°20' E 008°29'0 0.0
2015-Jan-15 11:29N 53°20' E 008°29'0 0.0
2015-Jan-15 10:23N 53°20' E 008°29'0 0.0
2015-Jan-15 09:23N 53°20' E 008°29'0 0.0
2015-Jan-15 08:32N 53°20' E 008°29'0 0.0
2015-Jan-15 07:29N 53°20' E 008°29'0 0.0
2015-Jan-15 06:29N 53°20' E 008°29'0 0.5
2015-Jan-15 05:34N 53°20' E 008°30'4 4.1
2015-Jan-15 04:34N 53°24' E 008°30'9 8.9
2015-Jan-15 03:33N 53°33' E 008°33'1111.5
2015-Jan-15 02:34N 53°42' E 008°21'1313.1
2015-Jan-15 01:34N 53°50' E 008°04'1211.9
2015-Jan-15 00:33N 53°53' E 007°44'2 2.3
2015-Jan-14 23:34N 53°55' E 007°47'0 0.0
2015-Jan-14 20:16N 53°55' E 007°47'0 0.2
2015-Jan-14 19:28N 53°55' E 007°47'4 4.1
2015-Jan-14 18:33N 53°56' E 007°41'2511.0
2015-Jan-14 16:17N 53°50' E 006°60'1013.3
2015-Jan-14 15:32N 53°48' E 006°43'1313.4
2015-Jan-14 14:32N 53°45' E 006°21'1313.5
2015-Jan-14 13:34N 53°41' E 006°00'1413.7
2015-Jan-14 12:33N 53°36' E 005°39'1413.6
2015-Jan-14 11:34N 53°31' E 005°17'1514.9
2015-Jan-14 10:33N 53°27' E 004°53'1513.5
2015-Jan-14 09:26N 53°15' E 004°36'1314.2
2015-Jan-14 08:33N 53°04' E 004°26'1514.0
2015-Jan-14 07:27N 52°51' E 004°14'1213.6
2015-Jan-14 06:33N 52°40' E 004°04'1313.1
2015-Jan-14 05:33N 52°29' E 003°54'1312.4
2015-Jan-14 04:32N 52°16' E 003°52'1111.7
2015-Jan-14 03:34N 52°05' E 003°54'9 8.5
2015-Jan-14 02:33N 51°59' E 004°05'1010.4
2015-Jan-14 01:33N 51°54' E 004°19'5 4.6
2015-Jan-14 00:34N 51°53' E 004°27'0 0.1
2015-Jan-13 23:31N 51°53' E 004°27'0 0.0
2015-Jan-13 22:31N 51°53' E 004°27'0 0.0
2015-Jan-13 21:34N 51°53' E 004°27'0 0.0
2015-Jan-13 20:31N 51°53' E 004°27'0 0.0
2015-Jan-13 19:31N 51°53' E 004°27'0 0.0
2015-Jan-13 18:34N 51°53' E 004°27'0 0.0
2015-Jan-13 17:34N 51°53' E 004°27'0 0.0
2015-Jan-13 16:34N 51°53' E 004°27'0 0.0
2015-Jan-13 15:34N 51°53' E 004°27'0 0.0
2015-Jan-13 14:34N 51°53' E 004°27'0 0.0
2015-Jan-13 13:34N 51°53' E 004°27'0 0.0
2015-Jan-13 12:34N 51°53' E 004°27'0 0.0
2015-Jan-13 11:31N 51°53' E 004°27'0 0.0
2015-Jan-13 10:34N 51°53' E 004°27'0 0.0
2015-Jan-13 09:34N 51°53' E 004°27'0 0.0
2015-Jan-13 08:34N 51°53' E 004°27'0 0.0
2015-Jan-13 07:34N 51°53' E 004°27'0 0.0
2015-Jan-13 06:34N 51°53' E 004°27'0 0.0
2015-Jan-13 05:34N 51°53' E 004°27'0 0.0
2015-Jan-13 04:31N 51°53' E 004°27'0 0.0
2015-Jan-13 03:34N 51°53' E 004°27'0 0.0
2015-Jan-13 02:34N 51°53' E 004°27'0 0.0
2015-Jan-13 01:34N 51°53' E 004°27'0 0.0
2015-Jan-13 00:34N 51°53' E 004°27'0 0.0
2015-Jan-12 23:34N 51°53' E 004°27'0 0.0
2015-Jan-12 22:34N 51°53' E 004°27'0 0.0
2015-Jan-12 21:34N 51°53' E 004°27'0 0.0
2015-Jan-12 20:33N 51°53' E 004°27'0 0.0
2015-Jan-12 19:34N 51°53' E 004°27'0 0.0
2015-Jan-12 18:33N 51°53' E 004°27'0 0.0
2015-Jan-12 17:33N 51°53' E 004°27'0 0.0
2015-Jan-12 16:34N 51°53' E 004°27'0 0.0
2015-Jan-12 15:34N 51°53' E 004°27'0 0.0
2015-Jan-12 14:30N 51°53' E 004°27'0 0.0
2015-Jan-12 13:33N 51°53' E 004°27'0 0.0
2015-Jan-12 12:33N 51°53' E 004°27'0 0.0
2015-Jan-12 11:33N 51°53' E 004°27'0 0.0
2015-Jan-12 10:33N 51°53' E 004°27'0 0.0
2015-Jan-12 09:32N 51°53' E 004°27'0 0.0
2015-Jan-12 08:32N 51°53' E 004°27'0 0.0
2015-Jan-12 07:31N 51°53' E 004°27'0 0.0
2015-Jan-12 06:31N 51°53' E 004°27'0 0.0
2015-Jan-12 05:31N 51°53' E 004°27'0 0.0
2015-Jan-12 04:28N 51°53' E 004°27'0 0.0
2015-Jan-12 03:31N 51°53' E 004°27'0 0.0
2015-Jan-12 02:31N 51°53' E 004°27'  

Dump ship's entire track history